DW7054 Weather Reports


time (UTC)temp
C
wind
direction
speed
KPH
gust
KPH
rain 1hr
cm
rain 24hr
cm
rain mn
cm
humidity
%
barometer
mb
20200531081519 21 152 0.0 0.0 0.00 3.71 3.68 98 1014.4
20200531074629 21 152 0.0 0.0 0.00 3.71 3.68 98 1014.3
20200531073129 21 152 0.0 1.6 0.00 3.71 3.68 98 1014.3
20200531071555 21 126 0.0 3.2 0.00 3.71 3.68 98 1014.5
20200531070124 21 178 0.0 0.0 0.00 3.71 3.68 98 1014.6
20200531064513 21 178 0.0 0.0 0.00 3.71 3.68 98 1014.5
20200531063039 21 178 0.0 0.0 0.00 3.71 3.68 99 1014.4
20200531061648 21 178 0.0 0.0 0.00 3.71 3.68 98 1014.5
20200531060238 21 178 0.0 0.0 0.03 3.71 3.68 98 1014.8
20200531054652 21 178 0.0 0.0 0.03 3.71 3.68 98 1014.9
20200531053216 21 178 0.0 0.0 0.03 3.71 3.68 98 1015.3
20200531051708 21 178 0.0 0.0 0.03 3.71 3.68 98 1015.6
20200531050133 21 178 0.0 0.0 0.00 3.68 3.66 98 1015.7
20200531044644 21 178 0.0 0.0 0.00 3.68 3.66 98 1015.6
20200531043216 21 178 0.0 0.0 0.00 3.68 3.66 98 1015.5
20200531041649 21 178 0.0 0.0 0.00 3.68 3.66 98 1015.5
20200531040114 21 178 0.0 0.0 0.00 3.68 3.66 98 1015.6
20200531034537 21 178 0.0 0.0 0.00 3.68 3.66 98 1015.7
20200531033127 21 178 0.0 0.0 0.00 3.68 3.66 98 1015.7
20200531031518 21 178 0.0 0.0 0.00 3.68 3.66 98 1015.8
20200531030041 21 178 0.0 0.0 0.00 3.68 3.66 98 1016.0
20200531024638 21 178 0.0 0.0 0.00 3.68 3.66 98 1016.0
20200531023139 21 178 0.0 0.0 0.00 3.91 3.66 98 1015.6
20200531021633 21 178 0.0 0.0 0.00 3.91 3.66 98 1015.6
20200531020104 21 178 0.0 0.0 0.00 3.91 3.66 98 1015.3
20200531014621 21 178 0.0 0.0 0.00 3.91 3.66 98 1015.4
20200531013057 21 178 0.0 0.0 0.00 4.14 3.66 98 1015.1
20200531011603 21 178 0.0 0.0 0.00 4.14 3.66 98 1014.7
20200531010152 21 178 0.0 3.2 0.00 4.14 3.66 97 1014.5
20200531004618 21 19 0.0 0.0 0.00 4.14 3.66 97 1014.8
20200531003052 21 19 0.0 0.0 0.03 8.76 3.66 97 1014.7
20200531001551 21 19 0.0 3.2 0.08 8.76 3.66 97 1014.7
20200531000059 21 46 1.6 3.2 0.08 8.76 3.66 97 1014.6
20200530234523 21 55 0.0 3.2 0.08 8.76 3.66 97 1013.9
20200530233006 21 207 0.0 0.0 0.05 8.81 3.63 96 1013.7
20200530231620 21 207 0.0 0.0 0.79 8.76 3.58 96 1013.9
20200530230117 21 207 0.0 0.0 3.48 8.76 3.58 96 1014.0
20200530224558 21 316 0.0 3.2 3.58 8.76 3.58 95 1014.5
20200530223124 21 32 0.0 12.9 3.58 9.14 3.58 94 1013.4
20200530221508 22 126 12.9 32.2 2.54 8.10 2.54 87 1014.9
20200530220015 27 230 3.2 6.4 0.08 5.64 0.08 87 1013.9
20200530214642 29 111 0.0 6.4 0.00 5.56 0.00 79 1012.7
20200530213111 30 94 0.0 11.3 0.00 5.56 0.00 79 1012.9
20200530211613 31 11 0.0 11.3 0.00 5.56 0.00 75 1013.0
20200530210053 31 93 3.2 12.9 0.00 5.56 0.00 71 1013.1
20200530204506 33 241 0.0 4.8 0.00 5.56 0.00 59 1013.2
20200530203008 33 68 0.0 4.8 0.00 5.56 0.00 59 1013.2
20200530201645 33 276 0.0 4.8 0.00 5.56 0.00 61 1013.4
20200530200108 33 42 0.0 3.2 0.00 5.56 0.00 63 1013.6
20200530194551 32 14 0.0 4.8 0.00 5.56 0.00 65 1013.9
20200530193148 33 311 0.0 3.2 0.00 5.56 0.00 64 1014.0
20200530191605 32 239 0.0 3.2 0.00 5.56 0.00 66 1014.1
20200530190110 32 266 0.0 3.2 0.00 5.56 0.00 66 1014.2
20200530184540 32 266 0.0 3.2 0.00 5.56 0.00 65 1014.4
20200530183059 32 302 0.0 6.4 0.00 5.56 0.00 68 1014.6
20200530181528 32 32 1.6 8.0 0.00 5.56 0.00 65 1014.7
20200530180015 32 279 0.0 6.4 0.00 5.56 0.00 68 1014.7
20200530174634 31 309 0.0 1.6 0.00 5.56 0.00 72 1014.9
20200530173100 31 240 0.0 1.6 0.00 5.56 0.00 69 1015.1
20200530171638 31 294 0.0 4.8 0.00 5.56 0.00 71 1015.3
20200530170038 31 293 1.6 9.7 0.00 5.56 0.00 71 1015.5
20200530164511 31 300 1.6 9.7 0.00 5.56 0.00 74 1015.6
20200530163017 30 184 0.0 4.8 0.00 5.56 0.00 76 1015.6
20200530161630 30 251 0.0 8.0 0.00 5.56 0.00 77 1015.8
20200530160101 30 184 0.0 4.8 0.00 5.56 0.00 78 1015.8
20200530154555 30 180 0.0 4.8 0.00 5.56 0.00 78 1016.0
20200530153032 29 301 0.0 3.2 0.00 5.56 0.00 83 1016.0
20200530151506 27 164 0.0 4.8 0.00 5.56 0.00 86 1016.1
20200530150207 27 223 0.0 3.2 0.00 5.56 0.00 89 1016.0
20200530144605 26 265 0.0 0.0 0.00 5.56 0.00 93 1016.1
20200530143100 26 268 0.0 0.0 0.00 5.56 0.00 95 1016.2
20200530141519 25 169 0.0 1.6 0.00 5.56 0.00 97 1016.3
20200530140017 25 196 0.0 3.2 0.00 5.56 0.00 99 1016.4
20200530134614 25 260 0.0 0.0 0.00 5.56 0.00 99 1016.4
20200530133144 24 150 0.0 8.0 0.00 5.56 0.00 99 1016.5
20200530131636 24 148 0.0 0.0 0.00 5.56 0.00 99 1016.6
20200530130121 23 246 0.0 1.6 0.00 5.56 0.00 99 1016.7
20200530124513 23 101 0.0 0.0 0.00 5.56 0.00 99 1016.7
20200530123010 23 101 0.0 0.0 0.00 5.56 0.00 99 1016.6
20200530121657 23 101 0.0 0.0 0.00 5.56 0.00 99 1016.5
20200530120113 22 101 0.0 0.0 0.00 5.56 0.00 99 1016.3
20200530114546 22 101 0.0 0.0 0.00 5.56 0.00 99 1016.3
20200530113030 21 101 0.0 0.0 0.00 5.56 0.00 99 1016.1
20200530111521 21 122 0.0 0.0 0.00 5.56 0.00 99 1016.0
20200530110002 21 112 0.0 0.0 0.03 5.56 0.00 99 1015.8
20200530104611 21 112 0.0 0.0 0.03 5.56 0.00 99 1015.5
20200530103044 21 112 0.0 0.0 0.03 5.56 5.56 99 1015.5
20200530101540 21 112 0.0 0.0 0.03 5.56 5.56 99 1015.5
20200530100021 21 112 0.0 0.0 0.00 5.54 5.54 99 1015.5
20200530094503 20 112 0.0 0.0 0.00 5.54 5.54 99 1015.4
20200530093007 20 112 0.0 0.0 0.00 5.54 5.54 98 1015.5
20200530090135 20 112 0.0 0.0 0.00 5.54 5.54 98 1015.5
20200530084618 20 112 0.0 0.0 0.00 5.54 5.54 98 1015.6
20200530083026 20 112 0.0 0.0 0.00 5.54 5.54 98 1015.7